createdAt,value
2018-01-12T00:02:05.445Z,36.17
2018-01-12T00:04:32.974Z,39.57
2018-01-12T00:07:01.211Z,34.47
2018-01-12T00:09:28.732Z,39.70
2018-01-12T00:11:56.274Z,41.07
2018-01-12T00:14:24.417Z,40.57
2018-01-12T00:16:51.928Z,43.63
2018-01-12T00:19:19.815Z,41.67
2018-01-12T00:21:47.437Z,43.97
2018-01-12T00:24:15.709Z,43.40
2018-01-12T00:26:44.050Z,40.53
2018-01-12T00:29:11.996Z,42.63
2018-01-12T00:31:39.530Z,44.97
2018-01-12T00:34:07.805Z,45.07
2018-01-12T00:36:35.784Z,43.70
2018-01-12T00:39:03.626Z,43.80
2018-01-12T00:41:31.726Z,40.87
2018-01-12T00:44:00.069Z,45.00
2018-01-12T00:46:27.592Z,44.93
2018-01-12T00:48:55.509Z,41.70
2018-01-12T00:51:23.984Z,46.83
2018-01-12T00:53:51.997Z,45.20
2018-01-12T00:56:19.531Z,43.30
2018-01-12T00:58:48.179Z,42.53
2018-01-12T01:01:15.742Z,43.37
2018-01-12T01:03:43.466Z,44.17
2018-01-12T01:06:11.001Z,42.10
2018-01-12T01:08:39.554Z,41.07
2018-01-12T01:11:07.072Z,44.20
2018-01-12T01:13:34.698Z,38.97
2018-01-12T01:16:02.254Z,44.73
2018-01-12T01:18:30.529Z,42.67
2018-01-12T01:20:58.018Z,36.90
2018-01-12T01:23:25.626Z,44.73
2018-01-12T01:25:53.129Z,48.97
2018-01-12T01:28:21.555Z,44.10
2018-01-12T01:30:49.054Z,43.90
2018-01-12T01:33:16.562Z,44.63
2018-01-12T01:35:44.115Z,44.13
2018-01-12T01:38:11.906Z,43.50
2018-01-12T01:40:39.399Z,43.37
2018-01-12T01:43:07.797Z,44.03
2018-01-12T01:45:35.534Z,41.10
2018-01-12T01:48:03.953Z,41.53
2018-01-12T01:50:31.465Z,37.43
2018-01-12T01:52:59.081Z,42.83
2018-01-12T01:55:26.611Z,44.60
2018-01-12T01:57:54.450Z,40.10
2018-01-12T02:00:23.458Z,44.87
2018-01-12T02:02:52.280Z,42.03
2018-01-12T02:05:20.055Z,44.83
2018-01-12T02:07:47.565Z,43.70
2018-01-12T02:10:15.969Z,43.83
2018-01-12T02:12:44.769Z,44.53
2018-01-12T02:15:12.789Z,45.03
2018-01-12T02:17:40.796Z,43.33
2018-01-12T02:20:09.192Z,42.53
2018-01-12T02:22:36.847Z,42.87
2018-01-12T02:25:04.513Z,41.97
2018-01-12T02:27:32.001Z,42.57
2018-01-12T02:29:59.737Z,40.20
2018-01-12T02:32:27.238Z,35.67
2018-01-12T02:34:55.078Z,43.97
2018-01-12T02:37:22.629Z,44.33
2018-01-12T02:39:50.164Z,42.23
2018-01-12T02:42:18.465Z,41.83
2018-01-12T02:44:45.990Z,38.30
2018-01-12T02:47:13.545Z,41.77
2018-01-12T02:49:41.763Z,41.57
2018-01-12T02:52:09.293Z,41.43
2018-01-12T02:54:37.556Z,43.17
2018-01-12T02:57:06.000Z,42.57
2018-01-12T02:59:34.252Z,41.53
2018-01-12T03:02:02.278Z,42.73
2018-01-12T03:04:29.804Z,42.77
2018-01-12T03:06:57.308Z,42.13
2018-01-12T03:09:25.252Z,41.27
2018-01-12T03:11:52.982Z,38.90
2018-01-12T03:14:21.149Z,37.93
2018-01-12T03:16:48.762Z,43.03
2018-01-12T03:19:16.290Z,40.93
2018-01-12T03:21:43.786Z,41.37
2018-01-12T03:24:11.428Z,43.13
2018-01-12T03:26:39.354Z,43.27
2018-01-12T03:29:07.825Z,37.63
2018-01-12T03:31:35.417Z,42.67
2018-01-12T03:34:02.944Z,43.00
2018-01-12T03:36:30.485Z,41.37
2018-01-12T03:38:58.205Z,43.70
2018-01-12T03:41:25.763Z,43.43
2018-01-12T03:43:54.106Z,41.80
2018-01-12T03:46:21.660Z,39.53
2018-01-12T03:48:49.862Z,40.33
2018-01-12T03:51:17.396Z,41.17
2018-01-12T03:53:45.495Z,44.67
2018-01-12T03:56:13.333Z,39.37
2018-01-12T03:58:40.856Z,40.43
2018-01-12T04:01:08.375Z,46.37
2018-01-12T04:03:35.910Z,44.53
2018-01-12T04:06:03.419Z,41.83
2018-01-12T04:08:30.927Z,43.77
2018-01-12T04:10:59.382Z,44.47
2018-01-12T04:13:28.942Z,44.13
2018-01-12T04:15:56.625Z,35.43
2018-01-12T04:18:24.186Z,43.17
2018-01-12T04:20:51.748Z,36.27
2018-01-12T04:23:19.353Z,44.83
2018-01-12T04:25:47.622Z,38.93
2018-01-12T04:28:15.465Z,42.43
2018-01-12T04:30:42.991Z,45.03
2018-01-12T04:33:11.334Z,42.97
2018-01-12T04:35:39.062Z,41.33
2018-01-12T04:38:06.834Z,37.47
2018-01-12T04:40:35.123Z,33.07
2018-01-12T04:43:02.679Z,42.30
2018-01-12T04:45:30.994Z,35.10
2018-01-12T04:47:58.524Z,40.63
2018-01-12T04:50:27.625Z,43.10
2018-01-12T04:52:55.624Z,35.43
2018-01-12T04:55:23.902Z,42.20
2018-01-12T04:57:55.393Z,42.03
2018-01-12T05:00:23.712Z,39.23
2018-01-12T05:02:51.485Z,40.90
2018-01-12T05:05:19.982Z,42.23
2018-01-12T05:07:47.635Z,42.07
2018-01-12T05:10:15.268Z,37.00
2018-01-12T05:12:43.405Z,38.60
2018-01-12T05:15:11.179Z,37.70
2018-01-12T05:17:38.797Z,37.83
2018-01-12T05:20:06.400Z,37.97
2018-01-12T05:22:35.820Z,38.13
2018-01-12T05:25:03.355Z,39.73
2018-01-12T05:27:32.831Z,40.17
2018-01-12T05:30:00.338Z,31.30
2018-01-12T05:32:28.772Z,38.23
2018-01-12T05:34:56.499Z,38.50
2018-01-12T05:37:24.758Z,37.20
2018-01-12T05:39:52.286Z,38.37
2018-01-12T05:42:19.819Z,34.00
2018-01-12T05:44:47.404Z,30.17
2018-01-12T05:47:14.969Z,34.23
2018-01-12T05:49:42.530Z,31.13
2018-01-12T05:52:10.089Z,37.87
2018-01-12T05:54:37.657Z,29.57
2018-01-12T05:57:05.216Z,34.60
2018-01-12T05:59:32.971Z,35.83
2018-01-12T06:02:12.222Z,34.03
2018-01-12T06:04:51.663Z,34.97
2018-01-12T06:07:19.302Z,35.20
2018-01-12T06:09:47.686Z,32.00
2018-01-12T06:12:15.211Z,27.57
2018-01-12T06:14:42.702Z,34.10
2018-01-12T06:17:12.043Z,33.27
2018-01-12T06:19:40.318Z,23.13
2018-01-12T06:22:08.684Z,32.47
2018-01-12T06:24:36.314Z,34.37
2018-01-12T06:27:04.038Z,32.00
2018-01-12T06:29:32.296Z,31.07
2018-01-12T06:32:00.209Z,32.90
2018-01-12T06:34:27.813Z,32.40
2018-01-12T06:36:55.333Z,26.33
2018-01-12T06:39:22.957Z,28.20
2018-01-12T06:41:51.269Z,28.67
2018-01-12T06:44:18.849Z,26.40
2018-01-12T06:46:46.379Z,31.23
2018-01-12T06:49:13.978Z,28.00
2018-01-12T06:51:41.500Z,31.27
2018-01-12T06:54:09.028Z,29.73
2018-01-12T06:56:36.532Z,22.93
2018-01-12T06:59:04.087Z,29.27
2018-01-12T07:01:31.652Z,30.50
2018-01-12T07:04:01.895Z,29.40
2018-01-12T07:06:30.559Z,25.73
2018-01-12T07:08:58.073Z,29.20
2018-01-12T07:11:25.616Z,25.40
2018-01-12T07:13:54.037Z,29.17
2018-01-12T07:16:22.225Z,28.30
2018-01-12T07:18:49.807Z,21.97
2018-01-12T07:21:29.082Z,16.83
2018-01-12T07:23:57.404Z,24.90
2018-01-12T07:26:24.997Z,25.20
2018-01-12T07:28:52.810Z,24.27
2018-01-12T07:31:20.442Z,30.07
2018-01-12T07:33:48.544Z,21.30
2018-01-12T07:36:16.632Z,24.90
2018-01-12T07:38:44.630Z,26.50
2018-01-12T07:41:12.541Z,29.17
2018-01-12T07:43:40.193Z,27.50
2018-01-12T07:46:08.590Z,22.60
2018-01-12T07:48:36.167Z,30.33
2018-01-12T07:51:04.395Z,29.40
2018-01-12T07:53:32.021Z,15.00
2018-01-12T07:56:00.578Z,23.70
2018-01-12T07:58:28.242Z,24.03
2018-01-12T08:01:01.456Z,23.50
2018-01-12T08:03:29.112Z,23.63
2018-01-12T08:05:56.860Z,26.40
2018-01-12T08:08:24.399Z,21.03
2018-01-12T08:10:53.375Z,23.40
2018-01-12T08:13:21.937Z,24.20
2018-01-12T08:15:49.451Z,25.00
2018-01-12T08:18:16.993Z,25.23
2018-01-12T08:20:44.638Z,27.27
2018-01-12T08:23:12.909Z,25.90
2018-01-12T08:25:40.429Z,24.20
2018-01-12T08:28:07.949Z,26.17
2018-01-12T08:30:35.691Z,22.20
2018-01-12T08:33:03.727Z,25.47
2018-01-12T08:35:31.274Z,29.00
2018-01-12T08:37:59.069Z,25.27
2018-01-12T08:40:26.638Z,31.50
2018-01-12T08:42:54.409Z,23.17
2018-01-12T08:45:23.037Z,25.33
2018-01-12T08:47:50.790Z,21.77
2018-01-12T08:50:18.382Z,25.87
2018-01-12T08:52:46.785Z,24.83
2018-01-12T08:55:14.516Z,21.97
2018-01-12T08:57:42.062Z,21.23
2018-01-12T09:00:09.641Z,21.93
2018-01-12T09:02:38.577Z,22.17
2018-01-12T09:05:07.426Z,24.27
2018-01-12T09:07:35.017Z,22.87
2018-01-12T09:10:03.014Z,25.27
2018-01-12T09:12:30.559Z,22.53
2018-01-12T09:15:05.949Z,23.83
2018-01-12T09:17:45.246Z,26.37
2018-01-12T09:20:18.545Z,21.77
2018-01-12T09:22:47.468Z,22.30
2018-01-12T09:25:26.091Z,23.33
2018-01-12T09:27:53.711Z,26.53
2018-01-12T09:30:21.398Z,26.33
2018-01-12T09:32:50.640Z,22.53
2018-01-12T09:35:18.197Z,25.23
2018-01-12T09:37:45.713Z,22.73
2018-01-12T09:40:28.097Z,24.87
2018-01-12T09:42:55.635Z,24.67
2018-01-12T09:45:24.693Z,24.87
2018-01-12T09:50:56.670Z,22.53
2018-01-12T09:53:25.554Z,24.17
2018-01-12T09:55:53.086Z,23.83
2018-01-12T09:58:21.836Z,24.47
2018-01-12T10:01:06.240Z,24.77
2018-01-12T10:03:33.824Z,25.13
2018-01-12T10:06:01.391Z,13.93
2018-01-12T10:08:29.230Z,24.23
2018-01-12T10:10:56.835Z,23.73
2018-01-12T10:13:24.666Z,24.20
2018-01-12T10:15:52.487Z,23.13
2018-01-12T10:18:44.465Z,24.97
2018-01-12T10:21:23.814Z,19.97
2018-01-12T10:23:51.399Z,24.77
2018-01-12T10:26:18.890Z,24.37
2018-01-12T10:28:59.241Z,22.57
2018-01-12T10:34:44.783Z,24.77
2018-01-12T10:37:12.345Z,23.30
2018-01-12T10:39:52.587Z,24.60
2018-01-12T10:42:21.177Z,23.37
2018-01-12T10:44:49.358Z,24.83
2018-01-12T10:47:24.864Z,25.07
2018-01-12T10:53:05.115Z,23.60
2018-01-12T10:55:33.348Z,18.53
2018-01-12T10:58:01.258Z,24.40
2018-01-12T11:00:31.686Z,24.53
2018-01-12T11:02:59.222Z,24.30
2018-01-12T11:05:27.495Z,26.17
2018-01-12T11:07:55.002Z,26.37
2018-01-12T11:10:24.387Z,26.33
2018-01-12T11:12:52.914Z,24.03
2018-01-12T11:15:20.437Z,24.63
2018-01-12T11:17:47.967Z,24.40
2018-01-12T11:20:15.508Z,25.93
2018-01-12T11:22:43.086Z,23.70
2018-01-12T11:25:11.626Z,23.30
2018-01-12T11:27:39.446Z,22.73
2018-01-12T11:30:06.955Z,20.70
2018-01-12T11:32:34.464Z,24.03
2018-01-12T11:35:02.183Z,20.37
2018-01-12T11:37:30.184Z,22.30
2018-01-12T11:39:57.706Z,24.53
2018-01-12T11:42:25.645Z,24.17
2018-01-12T11:44:53.397Z,24.57
2018-01-12T11:47:21.940Z,23.07
2018-01-12T11:49:49.466Z,25.30
2018-01-12T11:52:17.051Z,24.70
2018-01-12T11:54:44.536Z,24.10
2018-01-12T11:57:12.112Z,25.67
2018-01-12T11:59:39.944Z,25.53
2018-01-12T12:02:07.826Z,25.40
2018-01-12T12:04:35.343Z,25.53
2018-01-12T12:07:03.652Z,26.47
2018-01-12T12:09:31.278Z,25.73
2018-01-12T12:11:59.172Z,25.77
2018-01-12T12:14:26.761Z,25.10
2018-01-12T12:16:54.364Z,25.30
2018-01-12T12:19:21.867Z,26.13
2018-01-12T12:21:49.504Z,25.67
2018-01-12T12:24:17.014Z,23.10
2018-01-12T12:26:44.513Z,26.13
2018-01-12T12:29:12.220Z,25.00
2018-01-12T12:31:40.544Z,27.07
2018-01-12T12:34:08.143Z,26.37
2018-01-12T12:36:36.221Z,25.13
2018-01-12T12:39:03.811Z,26.50
2018-01-12T12:41:32.570Z,24.80
2018-01-12T12:44:00.155Z,25.13
2018-01-12T12:46:28.124Z,21.87
2018-01-12T12:48:58.519Z,24.20
2018-01-12T12:51:26.194Z,21.10
2018-01-12T12:53:55.481Z,23.03
2018-01-12T12:56:23.027Z,25.30
2018-01-12T12:58:50.729Z,19.83
2018-01-12T13:01:18.465Z,24.20
2018-01-12T13:03:49.628Z,19.90
2018-01-12T13:06:17.184Z,26.10
2018-01-12T13:08:44.795Z,26.53
2018-01-12T13:11:12.866Z,25.97
2018-01-12T13:13:40.431Z,26.83
2018-01-12T13:16:08.132Z,23.97
2018-01-12T13:18:35.722Z,25.70
2018-01-12T13:21:04.171Z,25.73
2018-01-12T13:23:31.895Z,24.73
2018-01-12T13:25:59.835Z,24.30
2018-01-12T13:28:27.863Z,23.90
2018-01-12T13:30:55.423Z,25.63
2018-01-12T13:33:22.994Z,28.17
2018-01-12T13:35:50.657Z,17.67
2018-01-12T13:38:18.176Z,18.47
2018-01-12T13:40:47.604Z,23.83
2018-01-12T13:43:15.277Z,25.07
2018-01-12T13:45:42.795Z,26.30
2018-01-12T13:48:11.740Z,19.10
2018-01-12T13:50:39.829Z,26.43
2018-01-12T13:53:07.378Z,22.47
2018-01-12T13:55:34.946Z,25.57
2018-01-12T13:58:02.499Z,23.40
2018-01-12T14:00:30.559Z,25.77
2018-01-12T14:02:58.097Z,18.47
2018-01-12T14:05:25.656Z,20.80
2018-01-12T14:07:53.235Z,20.97
2018-01-12T14:10:20.843Z,21.33
2018-01-12T14:12:50.958Z,23.73
2018-01-12T14:15:18.665Z,26.07
2018-01-12T14:17:46.251Z,15.47
2018-01-12T14:20:15.662Z,24.73
2018-01-12T14:22:43.302Z,20.97
2018-01-12T14:25:10.861Z,22.40
2018-01-12T14:27:38.445Z,21.63
2018-01-12T14:30:06.007Z,23.53
2018-01-12T14:32:37.963Z,24.30
2018-01-12T14:35:05.650Z,15.27
2018-01-12T14:37:33.238Z,18.23
2018-01-12T14:40:01.821Z,26.80
2018-01-12T14:42:29.472Z,27.07
2018-01-12T14:44:57.670Z,22.47
2018-01-12T14:47:26.046Z,26.50
2018-01-12T14:49:53.601Z,26.03
2018-01-12T14:52:21.130Z,23.80
2018-01-12T14:54:48.662Z,18.47
2018-01-12T14:57:16.237Z,22.67
2018-01-12T14:59:43.922Z,25.57
2018-01-12T15:02:12.346Z,26.40
2018-01-12T15:04:40.913Z,28.87
2018-01-12T15:07:08.580Z,19.27
2018-01-12T15:09:36.146Z,27.37
2018-01-12T15:12:04.411Z,27.37
2018-01-12T15:14:31.990Z,24.57
2018-01-12T15:16:59.546Z,25.60
2018-01-12T15:19:27.111Z,28.30
2018-01-12T15:21:54.723Z,25.93
2018-01-12T15:24:22.292Z,27.60
2018-01-12T15:26:50.024Z,28.20
2018-01-12T15:29:18.081Z,16.57
2018-01-12T15:31:46.208Z,24.03
2018-01-12T15:34:14.098Z,20.70
2018-01-12T15:36:41.614Z,22.40
2018-01-12T15:39:09.214Z,22.87
2018-01-12T15:41:37.297Z,25.27
2018-01-12T15:44:05.334Z,28.20
2018-01-12T15:46:34.054Z,29.37
2018-01-12T15:49:01.602Z,29.83
2018-01-12T15:51:29.373Z,27.03
2018-01-12T15:53:57.111Z,27.63
2018-01-12T15:56:25.490Z,25.43
2018-01-12T15:58:53.151Z,30.97
2018-01-12T16:01:20.799Z,29.57
2018-01-12T16:03:49.547Z,30.20
2018-01-12T16:06:17.172Z,30.10
2018-01-12T16:08:45.270Z,30.57
2018-01-12T16:11:12.871Z,18.30
2018-01-12T16:13:40.421Z,17.73
2018-01-12T16:16:09.029Z,20.93
2018-01-12T16:18:37.445Z,30.97
2018-01-12T16:21:05.408Z,31.57
2018-01-12T16:23:32.948Z,31.17
2018-01-12T16:26:00.504Z,28.93
2018-01-12T16:28:28.910Z,34.17
2018-01-12T16:30:57.284Z,27.47
2018-01-12T16:33:24.823Z,23.57
2018-01-12T16:35:52.794Z,27.77
2018-01-12T16:38:20.583Z,29.73
2018-01-12T16:40:48.349Z,32.50
2018-01-12T16:43:16.574Z,25.70
2018-01-12T16:45:44.268Z,31.33
2018-01-12T16:48:13.109Z,33.90
2018-01-12T16:50:40.936Z,32.63
2018-01-12T16:53:08.611Z,30.00
2018-01-12T16:55:37.168Z,28.07
2018-01-12T16:58:06.163Z,26.27
2018-01-12T17:00:33.737Z,28.73
2018-01-12T17:03:01.472Z,33.97
2018-01-12T17:05:29.776Z,24.33
2018-01-12T17:07:57.279Z,28.93
2018-01-12T17:10:24.867Z,27.97
2018-01-12T17:12:53.381Z,31.00
2018-01-12T17:15:20.939Z,32.23
2018-01-12T17:17:48.719Z,25.33
2018-01-12T17:20:16.488Z,26.00
2018-01-12T17:22:45.012Z,30.53
2018-01-12T17:25:12.650Z,29.83
2018-01-12T17:27:40.368Z,32.77
2018-01-12T17:30:07.945Z,27.93
2018-01-12T17:32:35.515Z,31.53
2018-01-12T17:35:03.830Z,34.07
2018-01-12T17:37:31.336Z,31.70
2018-01-12T17:39:59.254Z,30.00
2018-01-12T17:42:27.643Z,24.37
2018-01-12T17:44:56.831Z,28.10
2018-01-12T17:47:24.440Z,22.87
2018-01-12T17:49:51.973Z,27.20
2018-01-12T17:52:19.656Z,24.83
2018-01-12T17:54:48.247Z,28.90
2018-01-12T17:57:16.763Z,26.27
2018-01-12T17:59:44.520Z,29.63
2018-01-12T18:02:12.146Z,29.30
2018-01-12T18:04:39.781Z,24.97
2018-01-12T18:07:07.369Z,18.67
2018-01-12T18:09:36.008Z,26.50
2018-01-12T18:12:03.594Z,11.70
2018-01-12T18:14:31.247Z,28.57
2018-01-12T18:16:58.968Z,23.87
2018-01-12T18:19:26.551Z,21.53
2018-01-12T18:21:54.150Z,25.20
2018-01-12T18:24:23.149Z,24.27
2018-01-12T18:26:51.882Z,30.10
2018-01-12T18:29:21.263Z,31.00
2018-01-12T18:31:48.890Z,22.57
2018-01-12T18:34:17.208Z,27.90
2018-01-12T18:36:44.983Z,29.40
2018-01-12T18:39:12.734Z,26.77
2018-01-12T18:41:40.300Z,27.63
2018-01-12T18:44:07.869Z,17.23
2018-01-12T18:46:35.437Z,26.77
2018-01-12T18:49:02.973Z,20.03
2018-01-12T18:51:30.510Z,21.87
2018-01-12T18:53:58.498Z,17.53
2018-01-12T18:56:26.062Z,25.47
2018-01-12T18:58:54.040Z,27.70
2018-01-12T19:01:21.608Z,28.93
2018-01-12T19:03:49.187Z,29.20
2018-01-12T19:06:16.985Z,28.60
2018-01-12T19:08:45.380Z,30.30
2018-01-12T19:11:13.169Z,27.63
2018-01-12T19:13:40.709Z,27.03
2018-01-12T19:16:08.258Z,29.43
2018-01-12T19:18:36.111Z,30.87
2018-01-12T19:21:03.701Z,33.77
2018-01-12T19:23:31.378Z,32.47
2018-01-12T19:25:58.975Z,29.73
2018-01-12T19:28:26.755Z,22.73
2018-01-12T19:30:54.287Z,28.83
2018-01-12T19:33:22.113Z,25.97
2018-01-12T19:35:49.924Z,31.03
2018-01-12T19:38:18.293Z,32.63
2018-01-12T19:40:45.916Z,30.07
2018-01-12T19:43:13.488Z,31.43
2018-01-12T19:45:41.050Z,28.53
2018-01-12T19:48:08.646Z,33.30
2018-01-12T19:50:36.207Z,30.90
2018-01-12T19:53:03.789Z,28.37
2018-01-12T19:55:33.029Z,33.10
2018-01-12T19:58:00.652Z,32.93
2018-01-12T20:00:28.228Z,24.83
2018-01-12T20:02:56.457Z,22.63
2018-01-12T20:05:24.183Z,31.70
2018-01-12T20:07:52.044Z,31.80
2018-01-12T20:10:19.906Z,35.53
2018-01-12T20:12:47.486Z,29.60
2018-01-12T20:15:15.619Z,33.30
2018-01-12T20:17:43.949Z,27.67
2018-01-12T20:20:13.012Z,33.43
2018-01-12T20:22:41.011Z,32.83
2018-01-12T20:25:08.872Z,32.53
2018-01-12T20:27:36.470Z,35.23
2018-01-12T20:30:05.138Z,26.93
2018-01-12T20:32:32.957Z,29.03
2018-01-12T20:35:01.301Z,33.13
2018-01-12T20:37:29.454Z,32.67
2018-01-12T20:39:56.997Z,27.90
2018-01-12T20:42:24.531Z,34.17
2018-01-12T20:44:52.068Z,36.17
2018-01-12T20:47:20.382Z,26.20
2018-01-12T20:49:47.960Z,31.20
2018-01-12T20:52:15.752Z,33.23
2018-01-12T20:54:43.559Z,19.70
2018-01-12T20:57:11.153Z,33.40
2018-01-12T20:59:38.721Z,37.73
2018-01-12T21:02:07.675Z,32.07
2018-01-12T21:04:35.397Z,35.43
2018-01-12T21:07:03.596Z,32.30
2018-01-12T21:09:31.171Z,33.40
2018-01-12T21:11:58.877Z,31.20
2018-01-12T21:14:26.616Z,34.67
2018-01-12T21:16:54.156Z,35.50
2018-01-12T21:19:21.739Z,34.70
2018-01-12T21:21:49.274Z,32.33
2018-01-12T21:24:17.688Z,37.30
2018-01-12T21:26:45.783Z,23.87
2018-01-12T21:29:14.863Z,29.47
2018-01-12T21:31:43.681Z,32.87
2018-01-12T21:34:12.077Z,19.13
2018-01-12T21:36:39.592Z,35.73
2018-01-12T21:39:07.768Z,35.37
2018-01-12T21:41:36.702Z,34.27
2018-01-12T21:44:05.891Z,22.40
2018-01-12T21:46:34.399Z,24.73
2018-01-12T21:49:02.490Z,37.70
2018-01-12T21:51:30.024Z,33.67
2018-01-12T21:53:58.487Z,31.50
2018-01-12T21:56:26.200Z,32.80
2018-01-12T21:58:53.752Z,25.93
2018-01-12T22:01:21.323Z,36.13
2018-01-12T22:03:48.951Z,33.97
2018-01-12T22:06:17.842Z,34.80
2018-01-12T22:08:46.984Z,20.20
2018-01-12T22:11:14.565Z,35.60
2018-01-12T22:13:42.137Z,26.93
2018-01-12T22:16:09.825Z,23.43
2018-01-12T22:18:37.340Z,20.03
2018-01-12T22:21:04.920Z,29.10
2018-01-12T22:23:34.122Z,19.63
2018-01-12T22:26:03.229Z,29.43
2018-01-12T22:28:31.317Z,25.27
2018-01-12T22:30:59.233Z,27.43
2018-01-12T22:33:27.197Z,17.57
2018-01-12T22:35:54.846Z,38.00
2018-01-12T22:38:22.886Z,36.33
2018-01-12T22:40:51.281Z,28.37
2018-01-12T22:43:19.184Z,27.63
2018-01-12T22:45:46.743Z,36.87
2018-01-12T22:48:14.239Z,24.90
2018-01-12T22:50:41.774Z,32.37
2018-01-12T22:53:09.356Z,35.43
2018-01-12T22:55:38.723Z,37.67
2018-01-12T22:58:06.323Z,32.57
2018-01-12T23:00:34.622Z,34.40
2018-01-12T23:03:02.205Z,29.63
2018-01-12T23:05:29.813Z,36.03
2018-01-12T23:07:58.087Z,23.80
2018-01-12T23:10:26.099Z,21.97
2018-01-12T23:12:53.774Z,32.03
2018-01-12T23:15:21.325Z,31.40
2018-01-12T23:17:49.011Z,37.40
2018-01-12T23:20:18.089Z,36.13
2018-01-12T23:22:45.603Z,24.57
2018-01-12T23:25:13.850Z,36.97
2018-01-12T23:27:41.384Z,33.70
2018-01-12T23:30:09.104Z,26.63
2018-01-12T23:32:37.450Z,29.97
2018-01-12T23:35:05.702Z,34.87
2018-01-12T23:37:34.004Z,33.00
2018-01-12T23:40:01.545Z,25.80
2018-01-12T23:42:29.034Z,36.20
2018-01-12T23:44:57.269Z,32.77
2018-01-12T23:47:24.989Z,31.50
2018-01-12T23:49:53.292Z,24.63
2018-01-12T23:52:21.792Z,34.33
2018-01-12T23:54:49.450Z,19.57
2018-01-12T23:57:16.975Z,28.27
2018-01-12T23:59:45.562Z,34.90
